الصفحة الرئيسية
METAR-TAF:

METAR-TAF

مطار :

مطار جربة جرجيس الدولي

جربة, تونس

دائرة عرض: 33-52N, خط طول: 010-46E, ارتفاع: 3 متر

مراقبة الطقس الحالي

تاريخ ووقت الإصدار 32 دقيقة قبل الساعة 16:00UTC
ريح 9 عقدة من الشمال الغربي
درجة الحرارة 23°درجة مئوية
الرطوبة 61%
ضغط 1008 hPa
الرؤية 10 كم أو أكثر
الغيوم لا تقل 1500 م ولا وجود لمزنة ركامية السحاب الأسود

METAR: DTTJ 161600Z 31009KT CAVOK 23/15 Q1008 NOSIG

زمن: 17:32 (16:32 UTC)

توقعات

تاريخ ووقت الإصدار 5ساعات و 32 دقيقة قبل الساعة 11:00UTC
التوقعات صالحة من16 الساعة 12 UTC إلى 17 الساعة 12 UTC
ريح 12 عقدة من الغرب
الرؤية: 8000 متر
غيوم قليلة على ارتفاع 3000 قدم
نظرية الاحتمالات 40% :
مؤقت
من 16 الساعة 16 UTC إلى 16 الساعة 22 UTC
غيوم متفرقة على ارتفاع 2300 قدم
غيوم قليلة على ارتفاع 2600 قدم, مزنة ركامية.
عاصفة رعدية, (خفيف) زخات من المطر
أصبح
من 16 الساعة 20 UTC إلى 16 الساعة 22 UTC
ريح 6 عقدة من الغرب
أصبح
من 17 الساعة 00 UTC إلى 17 الساعة 02 UTC
ريح 3 عقدةمن اتجاهات متغيرة

TAF: DTTJ 161100Z 1612/1712 26012KT 8000 FEW030 PROB40 TEMPO 1616/1622 -TS SHRA SCT023 FEW026CB BECMG 1620/1622 27006KT BECMG 1700/1702 VRB03KT

أرصاد الطقس والتوقعات من أكثر من 4000 مطار (تقارير الطقس للمطار METAR والتنبؤ بالطقس بالمطارTAF).

المحطات المتاحة هي النقط الصفراء والحمراء على الخريطة.

حرك المؤشر فوق النقطة لمعرفة اسم المحطة.

ثم انقر لمعرفة أرصاد وتوقعات الطقس.

لتغيير الخارطة: اضغط على الأزرار الخضراء مع رمز الصليب الأسود للتكبير. على الزر الأخضر مع شرطة للتصغير، أو على الأسهم الخضراء للخرائط المجاورة.


METAR-TAF: